createdAt,value
2022-08-01T00:01:14.538Z,10.40
2022-08-01T00:03:45.607Z,6.73
2022-08-01T00:06:14.469Z,8.43
2022-08-01T00:08:43.363Z,8.77
2022-08-01T00:11:12.346Z,10.83
2022-08-01T00:13:43.798Z,10.50
2022-08-01T00:16:15.117Z,8.53
2022-08-01T00:18:43.790Z,8.07
2022-08-01T00:21:14.864Z,7.67
2022-08-01T00:23:43.455Z,9.73
2022-08-01T00:26:15.185Z,7.47
2022-08-01T00:28:47.166Z,9.47
2022-08-01T00:31:21.329Z,6.37
2022-08-01T00:33:52.709Z,8.77
2022-08-01T00:36:21.526Z,3.40
2022-08-01T00:38:59.805Z,2.67
2022-08-01T00:41:31.578Z,3.77
2022-08-01T00:44:02.629Z,2.37
2022-08-01T00:46:35.626Z,4.43
2022-08-01T00:49:10.517Z,2.63
2022-08-01T00:51:43.609Z,3.73
2022-08-01T00:54:13.285Z,2.73
2022-08-01T00:56:45.646Z,3.43
2022-08-01T00:59:16.653Z,3.23
2022-08-01T01:01:50.858Z,4.47
2022-08-01T01:04:20.407Z,2.43
2022-08-01T01:06:51.843Z,3.07
2022-08-01T01:09:25.511Z,3.70
2022-08-01T01:12:00.173Z,3.30
2022-08-01T01:14:40.156Z,3.23
2022-08-01T01:17:11.716Z,6.83
2022-08-01T01:19:41.648Z,5.90
2022-08-01T01:22:28.295Z,3.73
2022-08-01T01:25:10.197Z,5.00
2022-08-01T01:27:42.686Z,5.67
2022-08-01T01:30:15.875Z,6.07
2022-08-01T01:32:51.624Z,6.67
2022-08-01T01:35:26.164Z,5.57
2022-08-01T01:37:59.140Z,3.67
2022-08-01T01:40:33.578Z,3.63
2022-08-01T01:43:11.019Z,3.47
2022-08-01T01:45:42.871Z,3.80
2022-08-01T01:48:12.751Z,3.90
2022-08-01T01:50:42.973Z,9.07
2022-08-01T01:53:17.774Z,3.97
2022-08-01T01:55:49.567Z,5.80
2022-08-01T01:58:18.558Z,5.53
2022-08-01T02:00:48.753Z,4.93
2022-08-01T02:03:21.151Z,5.90
2022-08-01T02:05:51.120Z,6.63
2022-08-01T02:08:22.516Z,3.97
2022-08-01T02:11:05.226Z,3.43
2022-08-01T02:13:39.138Z,8.40
2022-08-01T02:16:09.716Z,6.27
2022-08-01T02:18:41.002Z,2.80
2022-08-01T02:21:22.641Z,4.40
2022-08-01T02:23:52.882Z,7.40
2022-08-01T02:26:28.893Z,3.77
2022-08-01T02:28:59.424Z,5.03
2022-08-01T02:31:29.574Z,2.10
2022-08-01T02:34:00.086Z,2.33
2022-08-01T02:36:40.569Z,2.33
2022-08-01T02:39:14.690Z,3.23
2022-08-01T02:41:44.559Z,2.50
2022-08-01T02:44:16.626Z,2.03
2022-08-01T02:46:47.973Z,1.50
2022-08-01T02:49:20.430Z,2.60
2022-08-01T02:51:50.338Z,2.30
2022-08-01T02:54:19.471Z,2.90
2022-08-01T02:56:55.619Z,2.10
2022-08-01T02:59:32.401Z,2.10
2022-08-01T03:02:06.417Z,1.63
2022-08-01T03:05:00.540Z,2.37
2022-08-01T03:07:39.044Z,2.20
2022-08-01T03:10:12.809Z,5.17
2022-08-01T03:12:41.866Z,2.10
2022-08-01T03:15:11.071Z,4.23
2022-08-01T03:17:42.093Z,4.67
2022-08-01T03:20:13.612Z,3.57
2022-08-01T03:22:42.262Z,4.43
2022-08-01T03:25:11.557Z,3.83
2022-08-01T03:27:41.826Z,4.97
2022-08-01T03:30:14.711Z,3.30
2022-08-01T03:32:45.032Z,3.33
2022-08-01T03:35:16.633Z,4.40
2022-08-01T03:38:14.852Z,1.87
2022-08-01T03:40:44.379Z,2.03
2022-08-01T03:43:14.023Z,3.10
2022-08-01T03:45:45.885Z,2.40
2022-08-01T03:48:18.464Z,1.63
2022-08-01T03:50:49.162Z,4.27
2022-08-01T03:53:25.931Z,3.43
2022-08-01T03:55:57.651Z,6.80
2022-08-01T03:58:31.614Z,2.60
2022-08-01T04:01:00.353Z,4.50
2022-08-01T04:03:41.684Z,6.73
2022-08-01T04:06:20.927Z,3.50
2022-08-01T04:08:57.827Z,3.77
2022-08-01T04:11:35.483Z,5.43
2022-08-01T04:14:13.223Z,3.00
2022-08-01T04:16:41.864Z,2.70
2022-08-01T04:19:14.614Z,4.13
2022-08-01T04:21:49.512Z,3.07
2022-08-01T04:24:19.644Z,2.30
2022-08-01T04:26:57.338Z,3.93
2022-08-01T04:29:30.725Z,4.83
2022-08-01T04:32:02.558Z,2.20
2022-08-01T04:34:34.008Z,5.43
2022-08-01T04:37:06.219Z,2.30
2022-08-01T04:39:50.812Z,3.47
2022-08-01T04:42:28.128Z,2.97
2022-08-01T04:45:02.380Z,3.80
2022-08-01T04:47:35.268Z,4.00
2022-08-01T04:50:11.742Z,3.43
2022-08-01T04:52:45.567Z,2.87
2022-08-01T04:55:18.427Z,4.73
2022-08-01T04:57:50.246Z,2.20
2022-08-01T05:00:31.557Z,4.13
2022-08-01T05:03:07.475Z,1.70
2022-08-01T05:05:45.568Z,3.20
2022-08-01T05:08:17.508Z,4.87
2022-08-01T05:10:49.341Z,3.27
2022-08-01T05:13:20.814Z,3.07
2022-08-01T05:15:58.904Z,3.00
2022-08-01T05:18:28.971Z,3.80
2022-08-01T05:21:06.353Z,3.53
2022-08-01T05:23:43.299Z,4.33
2022-08-01T05:26:13.907Z,3.97
2022-08-01T05:28:46.286Z,3.00
2022-08-01T05:31:17.947Z,2.50
2022-08-01T05:33:46.629Z,4.30
2022-08-01T05:36:38.913Z,4.60
2022-08-01T05:39:13.158Z,4.63
2022-08-01T05:41:42.148Z,4.10
2022-08-01T05:44:11.555Z,6.03
2022-08-01T05:46:47.438Z,6.27
2022-08-01T05:49:19.169Z,8.10
2022-08-01T05:51:54.580Z,4.10
2022-08-01T05:54:26.301Z,9.20
2022-08-01T05:57:00.807Z,5.73
2022-08-01T05:59:32.072Z,6.73
2022-08-01T06:02:01.976Z,5.23
2022-08-01T06:04:30.620Z,4.80
2022-08-01T06:07:00.558Z,3.77
2022-08-01T06:09:32.061Z,4.00
2022-08-01T06:12:00.677Z,6.80
2022-08-01T06:14:36.241Z,5.63
2022-08-01T06:17:12.329Z,4.97
2022-08-01T06:19:41.166Z,7.20
2022-08-01T06:22:15.060Z,4.73
2022-08-01T06:24:43.751Z,5.27
2022-08-01T06:27:22.197Z,6.03
2022-08-01T06:29:54.918Z,4.97
2022-08-01T06:32:26.729Z,5.03
2022-08-01T06:34:59.283Z,6.07
2022-08-01T06:37:34.137Z,4.40
2022-08-01T06:40:14.855Z,4.43
2022-08-01T06:42:57.544Z,7.00
2022-08-01T06:45:28.108Z,8.07
2022-08-01T06:48:01.073Z,9.47
2022-08-01T06:50:33.437Z,10.80
2022-08-01T06:53:04.435Z,16.30
2022-08-01T06:55:32.996Z,13.00
2022-08-01T06:58:02.456Z,10.40
2022-08-01T07:00:34.293Z,16.50
2022-08-01T07:03:05.432Z,14.47
2022-08-01T07:05:36.856Z,13.33
2022-08-01T07:08:09.260Z,16.90
2022-08-01T07:10:41.473Z,13.10
2022-08-01T07:13:13.217Z,17.27
2022-08-01T07:15:53.316Z,14.63
2022-08-01T07:18:22.158Z,13.67
2022-08-01T07:20:58.710Z,21.00
2022-08-01T07:23:38.551Z,15.17
2022-08-01T07:26:16.459Z,20.17
2022-08-01T07:28:49.298Z,19.03
2022-08-01T07:31:19.925Z,18.20
2022-08-01T07:33:49.490Z,18.00
2022-08-01T07:36:18.495Z,19.97
2022-08-01T07:38:48.641Z,19.93
2022-08-01T07:41:20.738Z,22.77
2022-08-01T07:44:11.925Z,22.87
2022-08-01T07:46:40.463Z,21.53
2022-08-01T07:49:09.124Z,22.73
2022-08-01T07:52:03.777Z,17.57
2022-08-01T07:54:34.877Z,17.43
2022-08-01T07:57:05.747Z,17.33
2022-08-01T07:59:41.051Z,20.00
2022-08-01T08:02:10.182Z,15.50
2022-08-01T08:04:39.032Z,12.83
2022-08-01T08:07:07.808Z,9.53
2022-08-01T08:09:39.992Z,9.57
2022-08-01T08:12:09.163Z,12.27
2022-08-01T08:14:37.910Z,10.03
2022-08-01T08:17:09.333Z,11.17
2022-08-01T08:19:39.855Z,17.50
2022-08-01T08:22:09.374Z,7.63
2022-08-01T08:24:47.063Z,6.40
2022-08-01T08:27:16.990Z,11.00
2022-08-01T08:29:50.944Z,10.63
2022-08-01T08:32:21.540Z,10.43
2022-08-01T08:34:50.456Z,8.00
2022-08-01T08:37:22.864Z,11.07
2022-08-01T08:39:55.920Z,8.87
2022-08-01T08:42:27.767Z,6.10
2022-08-01T08:44:56.778Z,6.33
2022-08-01T08:47:28.738Z,9.80
2022-08-01T08:49:58.269Z,10.30
2022-08-01T08:52:30.297Z,6.80
2022-08-01T08:55:00.298Z,5.47
2022-08-01T08:57:36.177Z,5.97
2022-08-01T09:00:07.358Z,6.23
2022-08-01T09:02:41.667Z,6.53
2022-08-01T09:05:19.866Z,5.33
2022-08-01T09:07:59.009Z,4.57
2022-08-01T09:10:29.232Z,6.87
2022-08-01T09:13:13.667Z,6.03
2022-08-01T09:18:34.271Z,8.37
2022-08-01T09:21:13.546Z,6.67
2022-08-01T09:23:53.549Z,7.37
2022-08-01T09:26:30.889Z,7.43
2022-08-01T09:29:00.388Z,6.80
2022-08-01T09:31:37.978Z,4.53
2022-08-01T09:34:09.118Z,5.33
2022-08-01T09:36:49.543Z,7.93
2022-08-01T09:39:18.853Z,9.30
2022-08-01T09:41:51.742Z,11.33
2022-08-01T09:44:42.273Z,11.83
2022-08-01T09:47:12.061Z,6.17
2022-08-01T09:49:51.098Z,7.23
2022-08-01T09:52:21.322Z,6.17
2022-08-01T09:54:59.142Z,4.83
2022-08-01T09:57:29.465Z,5.30
2022-08-01T10:00:02.983Z,8.93
2022-08-01T10:02:34.824Z,5.97
2022-08-01T10:08:23.193Z,8.67
2022-08-01T10:11:06.850Z,10.00
2022-08-01T10:13:40.402Z,12.53
2022-08-01T10:16:13.296Z,13.30
2022-08-01T10:18:44.657Z,10.00
2022-08-01T10:21:16.193Z,12.90
2022-08-01T10:24:07.379Z,10.30
2022-08-01T10:26:36.402Z,8.73
2022-08-01T10:29:24.323Z,10.97
2022-08-01T10:32:06.300Z,8.43
2022-08-01T10:34:34.929Z,8.50
2022-08-01T10:37:05.358Z,8.07
2022-08-01T10:39:37.207Z,10.17
2022-08-01T10:42:10.794Z,9.63
2022-08-01T10:47:50.119Z,12.20
2022-08-01T10:50:26.085Z,4.67
2022-08-01T10:53:24.456Z,7.47
2022-08-01T10:56:02.678Z,7.50
2022-08-01T10:58:38.026Z,8.90
2022-08-01T11:01:26.468Z,8.87
2022-08-01T11:04:04.215Z,6.20
2022-08-01T11:06:39.064Z,10.20
2022-08-01T11:09:08.495Z,7.13
2022-08-01T11:11:39.693Z,6.13
2022-08-01T11:14:22.681Z,8.83
2022-08-01T11:17:03.777Z,8.27
2022-08-01T11:19:36.814Z,10.07
2022-08-01T11:22:17.499Z,8.57
2022-08-01T11:25:00.263Z,9.97
2022-08-01T11:27:33.767Z,8.03
2022-08-01T11:30:26.726Z,7.33
2022-08-01T11:33:10.619Z,6.57
2022-08-01T11:35:41.930Z,7.90
2022-08-01T11:38:31.627Z,6.43
2022-08-01T11:41:12.155Z,8.17
2022-08-01T11:43:56.514Z,8.60
2022-08-01T11:46:44.000Z,9.90
2022-08-01T11:52:21.591Z,3.40
2022-08-01T11:54:55.610Z,5.60
2022-08-01T11:57:34.504Z,8.77
2022-08-01T12:00:08.521Z,6.43
2022-08-01T12:02:39.674Z,11.97
2022-08-01T12:05:11.843Z,12.93
2022-08-01T12:07:42.913Z,7.60
2022-08-01T12:10:20.068Z,7.67
2022-08-01T12:12:49.634Z,9.83
2022-08-01T12:15:24.282Z,5.07
2022-08-01T12:17:59.763Z,8.60
2022-08-01T12:20:33.482Z,10.63
2022-08-01T12:23:04.894Z,5.63
2022-08-01T12:25:36.652Z,6.43
2022-08-01T12:28:05.553Z,7.90
2022-08-01T12:30:36.477Z,8.10
2022-08-01T12:33:08.884Z,8.93
2022-08-01T12:35:40.337Z,9.23
2022-08-01T12:38:10.474Z,6.17
2022-08-01T12:40:44.706Z,8.27
2022-08-01T12:43:29.364Z,8.73
2022-08-01T12:46:03.136Z,9.63
2022-08-01T12:48:32.147Z,6.10
2022-08-01T12:51:10.357Z,5.17
2022-08-01T12:53:40.628Z,12.00
2022-08-01T12:56:13.480Z,7.57
2022-08-01T12:58:59.527Z,7.93
2022-08-01T13:01:28.583Z,7.00
2022-08-01T13:04:00.808Z,9.77
2022-08-01T13:06:33.667Z,9.63
2022-08-01T13:09:10.762Z,7.73
2022-08-01T13:11:39.467Z,6.67
2022-08-01T13:14:33.019Z,7.63
2022-08-01T13:17:01.702Z,11.30
2022-08-01T13:19:45.045Z,10.60
2022-08-01T13:22:19.067Z,9.30
2022-08-01T13:24:49.877Z,6.37
2022-08-01T13:27:26.551Z,4.73
2022-08-01T13:29:55.452Z,8.23
2022-08-01T13:32:28.333Z,8.70
2022-08-01T13:35:06.386Z,8.37
2022-08-01T13:37:39.507Z,10.07
2022-08-01T13:40:08.843Z,4.27
2022-08-01T13:42:46.154Z,6.30
2022-08-01T13:45:17.680Z,5.37
2022-08-01T13:48:11.592Z,6.20
2022-08-01T13:50:40.134Z,6.70
2022-08-01T13:53:10.938Z,6.38
2022-08-01T13:55:44.582Z,5.10
2022-08-01T13:58:16.404Z,6.40
2022-08-01T14:00:49.056Z,8.45
2022-08-01T14:03:18.529Z,6.25
2022-08-01T14:05:49.324Z,5.35
2022-08-01T14:08:28.764Z,4.90
2022-08-01T14:10:59.708Z,9.33
2022-08-01T14:13:36.818Z,3.27
2022-08-01T14:16:05.684Z,6.57
2022-08-01T14:18:34.640Z,3.87
2022-08-01T14:21:06.742Z,3.75
2022-08-01T14:23:39.995Z,4.03
2022-08-01T14:26:12.354Z,13.55
2022-08-01T14:28:44.084Z,3.92
2022-08-01T14:31:12.762Z,6.35
2022-08-01T14:33:56.301Z,6.10
2022-08-01T14:36:38.409Z,4.80
2022-08-01T14:39:14.838Z,3.95
2022-08-01T14:41:43.954Z,2.40
2022-08-01T14:44:22.899Z,4.82
2022-08-01T14:47:02.974Z,6.32
2022-08-01T14:49:50.447Z,4.95
2022-08-01T14:52:20.783Z,3.58
2022-08-01T14:54:57.195Z,5.13
2022-08-01T14:57:34.899Z,6.28
2022-08-01T15:00:04.036Z,5.28
2022-08-01T15:02:34.806Z,5.45
2022-08-01T15:05:03.880Z,3.75
2022-08-01T15:07:36.170Z,6.22
2022-08-01T15:10:11.664Z,2.90
2022-08-01T15:12:50.204Z,6.45
2022-08-01T15:15:20.753Z,3.38
2022-08-01T15:17:49.649Z,6.50
2022-08-01T15:20:20.235Z,7.25
2022-08-01T15:22:49.656Z,3.03
2022-08-01T15:25:21.758Z,3.47
2022-08-01T15:28:01.095Z,3.53
2022-08-01T15:30:32.559Z,6.30
2022-08-01T15:33:13.009Z,4.23
2022-08-01T15:35:44.952Z,5.23
2022-08-01T15:38:20.577Z,3.20
2022-08-01T15:40:57.396Z,2.97
2022-08-01T15:43:27.183Z,3.17
2022-08-01T15:46:03.552Z,3.80
2022-08-01T15:48:40.093Z,4.00
2022-08-01T15:51:09.318Z,4.93
2022-08-01T15:53:37.847Z,5.30
2022-08-01T15:56:08.124Z,4.50
2022-08-01T15:58:41.735Z,7.17
2022-08-01T16:01:10.517Z,3.33
2022-08-01T16:03:44.356Z,8.70
2022-08-01T16:06:16.108Z,6.87
2022-08-01T16:08:44.689Z,4.90
2022-08-01T16:11:16.635Z,4.33
2022-08-01T16:13:49.306Z,5.33
2022-08-01T16:16:25.479Z,4.30
2022-08-01T16:18:55.841Z,5.87
2022-08-01T16:21:27.256Z,4.07
2022-08-01T16:23:58.811Z,4.13
2022-08-01T16:26:36.250Z,4.37
2022-08-01T16:29:10.598Z,2.87
2022-08-01T16:31:52.176Z,8.77
2022-08-01T16:34:37.647Z,4.17
2022-08-01T16:37:10.154Z,5.70
2022-08-01T16:39:39.018Z,21.93
2022-08-01T16:42:09.254Z,6.17
2022-08-01T16:44:40.014Z,4.43
2022-08-01T16:47:11.172Z,3.27
2022-08-01T16:49:42.281Z,3.20
2022-08-01T16:52:12.306Z,5.53
2022-08-01T16:54:42.322Z,5.13
2022-08-01T16:57:15.997Z,5.00
2022-08-01T16:59:45.026Z,2.73
2022-08-01T17:02:22.279Z,7.53
2022-08-01T17:04:56.020Z,4.60
2022-08-01T17:07:27.318Z,6.90
2022-08-01T17:10:01.171Z,4.97
2022-08-01T17:12:32.671Z,5.60
2022-08-01T17:15:01.574Z,3.87
2022-08-01T17:17:30.199Z,3.07
2022-08-01T17:20:01.424Z,2.83
2022-08-01T17:22:30.284Z,6.40
2022-08-01T17:25:01.083Z,5.90
2022-08-01T17:27:42.382Z,4.60
2022-08-01T17:30:14.374Z,6.10
2022-08-01T17:32:49.091Z,3.47
2022-08-01T17:35:19.494Z,2.47
2022-08-01T17:37:53.800Z,2.50
2022-08-01T17:40:39.538Z,6.73
2022-08-01T17:43:10.741Z,3.17
2022-08-01T17:45:50.550Z,2.33
2022-08-01T17:48:20.113Z,3.13
2022-08-01T17:50:50.423Z,2.93
2022-08-01T17:53:24.954Z,3.63
2022-08-01T17:55:57.818Z,4.20
2022-08-01T17:58:50.720Z,2.23
2022-08-01T18:01:20.177Z,2.60
2022-08-01T18:03:50.774Z,3.27
2022-08-01T18:06:27.500Z,3.63
2022-08-01T18:09:01.705Z,2.87
2022-08-01T18:11:37.294Z,2.83
2022-08-01T18:14:11.891Z,1.53
2022-08-01T18:16:45.830Z,1.40
2022-08-01T18:19:16.656Z,1.90
2022-08-01T18:21:50.037Z,2.50
2022-08-01T18:24:23.954Z,2.53
2022-08-01T18:26:54.499Z,3.20
2022-08-01T18:29:48.046Z,2.10
2022-08-01T18:32:29.459Z,2.07
2022-08-01T18:35:07.774Z,2.93
2022-08-01T18:37:43.477Z,1.17
2022-08-01T18:40:26.744Z,3.17
2022-08-01T18:43:00.409Z,4.50
2022-08-01T18:45:39.583Z,2.97
2022-08-01T18:48:15.484Z,3.87
2022-08-01T18:50:49.773Z,3.97
2022-08-01T18:53:19.045Z,2.03
2022-08-01T18:55:49.657Z,3.40
2022-08-01T18:58:18.609Z,4.67
2022-08-01T19:00:50.799Z,2.70
2022-08-01T19:03:22.069Z,2.73
2022-08-01T19:05:56.105Z,2.43
2022-08-01T19:08:30.760Z,2.07
2022-08-01T19:11:00.105Z,3.37
2022-08-01T19:13:29.966Z,4.30
2022-08-01T19:16:04.799Z,2.47
2022-08-01T19:18:35.587Z,2.90
2022-08-01T19:21:10.114Z,3.87
2022-08-01T19:23:56.194Z,7.93
2022-08-01T19:26:26.765Z,4.47
2022-08-01T19:29:04.852Z,3.50
2022-08-01T19:31:47.028Z,3.30
2022-08-01T19:34:26.560Z,3.63
2022-08-01T19:36:58.627Z,3.17
2022-08-01T19:39:27.699Z,1.93
2022-08-01T19:42:13.745Z,4.20
2022-08-01T19:44:51.534Z,3.33
2022-08-01T19:47:50.867Z,2.87
2022-08-01T19:50:18.259Z,2.67
2022-08-01T19:52:59.013Z,5.77
2022-08-01T19:55:29.862Z,3.30
2022-08-01T19:58:27.071Z,4.73
2022-08-01T20:00:56.391Z,3.53
2022-08-01T20:03:32.846Z,3.53
2022-08-01T20:06:06.753Z,3.50
2022-08-01T20:08:35.618Z,3.67
2022-08-01T20:11:05.663Z,3.40
2022-08-01T20:13:43.675Z,3.10
2022-08-01T20:16:12.185Z,4.17
2022-08-01T20:18:46.375Z,2.93
2022-08-01T20:21:28.364Z,4.87
2022-08-01T20:24:15.898Z,9.37
2022-08-01T20:29:37.421Z,4.80
2022-08-01T20:32:09.003Z,6.73
2022-08-01T20:34:39.705Z,3.60
2022-08-01T20:37:13.194Z,4.93
2022-08-01T20:39:44.158Z,4.00
2022-08-01T20:42:13.752Z,2.87
2022-08-01T20:45:00.314Z,4.60
2022-08-01T20:47:33.556Z,3.03
2022-08-01T20:53:14.295Z,4.47
2022-08-01T20:55:57.586Z,5.67
2022-08-01T20:58:39.664Z,3.67
2022-08-01T21:01:13.203Z,5.70
2022-08-01T21:07:23.262Z,4.60
2022-08-01T21:09:57.962Z,4.80
2022-08-01T21:12:49.310Z,4.07
2022-08-01T21:15:29.382Z,3.40
2022-08-01T21:18:14.777Z,5.13
2022-08-01T21:21:10.137Z,5.30
2022-08-01T21:23:42.107Z,4.57
2022-08-01T21:26:14.515Z,3.53
2022-08-01T21:29:02.360Z,4.93
2022-08-01T21:31:41.441Z,4.50
2022-08-01T21:34:51.032Z,4.57
2022-08-01T21:37:37.553Z,4.23
2022-08-01T21:40:10.484Z,3.37
2022-08-01T21:42:40.053Z,3.43
2022-08-01T21:45:09.896Z,5.90
2022-08-01T21:47:38.278Z,5.87
2022-08-01T21:50:07.243Z,3.73
2022-08-01T21:52:37.244Z,3.87
2022-08-01T21:55:10.924Z,1.93
2022-08-01T21:57:52.354Z,2.87
2022-08-01T22:00:26.073Z,4.47
2022-08-01T22:02:57.040Z,3.63
2022-08-01T22:05:49.682Z,4.50
2022-08-01T22:08:17.288Z,3.57
2022-08-01T22:10:45.719Z,4.67
2022-08-01T22:13:15.522Z,5.37
2022-08-01T22:15:44.864Z,6.10
2022-08-01T22:18:13.902Z,4.17
2022-08-01T22:20:42.391Z,3.37
2022-08-01T22:23:10.969Z,6.50
2022-08-01T22:25:39.580Z,4.37
2022-08-01T22:28:10.088Z,7.03
2022-08-01T22:30:44.182Z,4.50
2022-08-01T22:33:16.007Z,3.10
2022-08-01T22:35:46.700Z,2.73
2022-08-01T22:38:16.269Z,4.97
2022-08-01T22:40:47.353Z,4.47
2022-08-01T22:43:18.558Z,5.43
2022-08-01T22:45:50.051Z,5.70
2022-08-01T22:48:20.093Z,4.57
2022-08-01T22:50:49.023Z,6.23
2022-08-01T22:53:19.790Z,6.33
2022-08-01T22:55:58.310Z,1.80
2022-08-01T22:58:28.084Z,4.37
2022-08-01T23:01:01.433Z,2.60
2022-08-01T23:03:31.242Z,3.70
2022-08-01T23:06:03.054Z,3.93
2022-08-01T23:08:32.426Z,4.23
2022-08-01T23:11:01.955Z,3.77
2022-08-01T23:13:30.757Z,4.90
2022-08-01T23:16:01.745Z,3.93
2022-08-01T23:18:30.333Z,3.20
2022-08-01T23:20:59.028Z,3.33
2022-08-01T23:23:30.734Z,4.30
2022-08-01T23:26:00.133Z,4.93
2022-08-01T23:28:28.902Z,3.47
2022-08-01T23:30:57.285Z,6.60
2022-08-01T23:33:27.034Z,3.63
2022-08-01T23:35:55.584Z,3.17
2022-08-01T23:38:24.769Z,2.70
2022-08-01T23:40:53.557Z,4.93
2022-08-01T23:43:22.417Z,6.20
2022-08-01T23:46:03.548Z,2.47
2022-08-01T23:48:35.279Z,5.00
2022-08-01T23:51:04.241Z,7.57
2022-08-01T23:53:33.709Z,5.47
2022-08-01T23:56:04.718Z,3.93
2022-08-01T23:58:34.940Z,3.43
